createdAt,value
2023-05-19T00:01:13.678Z,102644.44
2023-05-19T00:03:52.473Z,102645.66
2023-05-19T00:06:24.992Z,102646.53
2023-05-19T00:08:57.678Z,102637.06
2023-05-19T00:11:26.465Z,102635.81
2023-05-19T00:13:58.573Z,102636.53
2023-05-19T00:16:27.429Z,102636.31
2023-05-19T00:18:54.324Z,102639.06
2023-05-19T00:21:21.019Z,102631.03
2023-05-19T00:23:47.636Z,102627.03
2023-05-19T00:26:14.254Z,102633.19
2023-05-19T00:28:50.996Z,102625.59
2023-05-19T00:31:17.688Z,102617.56
2023-05-19T00:33:44.744Z,102615.91
2023-05-19T00:36:11.683Z,102608.97
2023-05-19T00:38:38.373Z,102609.19
2023-05-19T00:41:06.342Z,102611.78
2023-05-19T00:43:34.396Z,102619.16
2023-05-19T00:46:01.238Z,102608.63
2023-05-19T00:48:28.022Z,102607.78
2023-05-19T00:51:01.913Z,102608.69
2023-05-19T00:53:29.223Z,102598.03
2023-05-19T00:55:56.100Z,102601.69
2023-05-19T00:58:23.827Z,102600.25
2023-05-19T01:00:50.627Z,102607.19
2023-05-19T01:03:20.530Z,102611.38
2023-05-19T01:05:53.633Z,102610.63
2023-05-19T01:08:20.352Z,102613.16
2023-05-19T01:10:46.950Z,102608.34
2023-05-19T01:13:13.849Z,102615.31
2023-05-19T01:15:57.892Z,102616.19
2023-05-19T01:18:47.435Z,102610.69
2023-05-19T01:21:44.527Z,102614.06
2023-05-19T01:24:14.533Z,102611.72
2023-05-19T01:27:07.435Z,102614.06
2023-05-19T01:29:48.414Z,102614.91
2023-05-19T01:32:18.537Z,102612.41
2023-05-19T01:34:46.932Z,102614.09
2023-05-19T01:37:16.164Z,102608.66
2023-05-19T01:39:44.709Z,102614.78
2023-05-19T01:42:12.790Z,102604.66
2023-05-19T01:44:39.609Z,102609.72
2023-05-19T01:47:06.460Z,102600.69
2023-05-19T01:49:33.036Z,102594.94
2023-05-19T01:51:59.566Z,102601.53
2023-05-19T01:54:26.155Z,102599.03
2023-05-19T01:57:04.008Z,102600.72
2023-05-19T01:59:44.837Z,102591.00
2023-05-19T02:02:34.316Z,102595.19
2023-05-19T02:05:13.454Z,102590.09
2023-05-19T02:07:44.815Z,102592.69
2023-05-19T02:10:19.195Z,102591.19
2023-05-19T02:12:46.072Z,102591.44
2023-05-19T02:15:18.915Z,102592.47
2023-05-19T02:17:48.320Z,102590.63
2023-05-19T02:20:16.179Z,102585.53
2023-05-19T02:22:42.899Z,102585.53
2023-05-19T02:25:10.098Z,102582.19
2023-05-19T02:27:38.300Z,102585.75
2023-05-19T02:30:06.149Z,102582.59
2023-05-19T02:32:33.354Z,102586.16
2023-05-19T02:35:00.059Z,102582.59
2023-05-19T02:37:35.290Z,102584.72
2023-05-19T02:40:01.809Z,102577.97
2023-05-19T02:42:29.586Z,102573.34
2023-05-19T02:44:56.220Z,102570.81
2023-05-19T02:47:22.936Z,102578.84
2023-05-19T02:49:49.558Z,102570.44
2023-05-19T02:52:16.161Z,102570.84
2023-05-19T02:54:43.649Z,102573.34
2023-05-19T02:57:11.148Z,102570.22
2023-05-19T02:59:37.759Z,102564.91
2023-05-19T03:02:04.664Z,102559.53
2023-05-19T03:04:31.273Z,102563.09
2023-05-19T03:06:57.880Z,102558.25
2023-05-19T03:09:24.641Z,102568.56
2023-05-19T03:11:51.407Z,102556.34
2023-05-19T03:14:18.532Z,102556.34
2023-05-19T03:16:45.321Z,102562.25
2023-05-19T03:19:12.392Z,102563.50
2023-05-19T03:21:39.215Z,102570.06
2023-05-19T03:24:06.662Z,102564.34
2023-05-19T03:26:33.687Z,102562.41
2023-05-19T03:29:00.957Z,102566.66
2023-05-19T03:31:28.380Z,102572.09
2023-05-19T03:33:55.189Z,102574.84
2023-05-19T03:36:22.542Z,102569.56
2023-05-19T03:38:49.518Z,102570.38
2023-05-19T03:41:16.202Z,102579.06
2023-05-19T03:43:42.772Z,102576.94
2023-05-19T03:46:10.244Z,102582.00
2023-05-19T03:48:52.614Z,102579.88
2023-05-19T03:51:25.098Z,102584.06
2023-05-19T03:53:55.915Z,102576.47
2023-05-19T03:56:23.593Z,102588.69
2023-05-19T03:58:50.223Z,102587.66
2023-05-19T04:01:17.474Z,102580.91
2023-05-19T04:03:44.094Z,102585.97
2023-05-19T04:06:10.979Z,102584.50
2023-05-19T04:08:37.538Z,102579.00
2023-05-19T04:11:04.266Z,102575.00
2023-05-19T04:13:33.808Z,102586.16
2023-05-19T04:16:01.080Z,102585.09
2023-05-19T04:18:29.014Z,102584.69
2023-05-19T04:20:55.968Z,102578.13
2023-05-19T04:23:22.602Z,102586.56
2023-05-19T04:25:49.771Z,102581.31
2023-05-19T04:28:16.485Z,102582.97
2023-05-19T04:30:43.175Z,102589.31
2023-05-19T04:33:09.965Z,102589.91
2023-05-19T04:35:38.072Z,102587.84
2023-05-19T04:38:04.680Z,102584.06
2023-05-19T04:40:33.660Z,102581.72
2023-05-19T04:43:02.377Z,102581.69
2023-05-19T04:45:30.133Z,102579.38
2023-05-19T04:48:00.126Z,102576.88
2023-05-19T04:50:28.572Z,102580.13
2023-05-19T04:52:58.976Z,102587.09
2023-05-19T04:55:26.021Z,102591.28
2023-05-19T04:57:53.376Z,102582.56
2023-05-19T05:00:21.220Z,102591.00
2023-05-19T05:03:08.248Z,102584.25
2023-05-19T05:05:35.269Z,102592.28
2023-05-19T05:08:01.870Z,102593.31
2023-05-19T05:10:32.602Z,102593.38
2023-05-19T05:13:00.733Z,102592.56
2023-05-19T05:15:28.868Z,102590.25
2023-05-19T05:17:57.994Z,102600.34
2023-05-19T05:20:25.396Z,102589.63
2023-05-19T05:22:52.387Z,102589.81
2023-05-19T05:25:20.498Z,102598.03
2023-05-19T05:27:48.084Z,102597.41
2023-05-19T05:30:14.691Z,102601.63
2023-05-19T05:32:42.326Z,102598.69
2023-05-19T05:35:18.094Z,102609.00
2023-05-19T05:37:44.754Z,102602.91
2023-05-19T05:40:11.907Z,102603.97
2023-05-19T05:42:39.037Z,102602.72
2023-05-19T05:45:06.361Z,102593.22
2023-05-19T05:47:33.577Z,102605.88
2023-05-19T05:50:00.534Z,102595.78
2023-05-19T05:52:30.590Z,102590.94
2023-05-19T05:54:59.158Z,102601.25
2023-05-19T05:57:26.992Z,102596.59
2023-05-19T05:59:53.712Z,102594.50
2023-05-19T06:02:20.786Z,102594.69
2023-05-19T06:04:47.579Z,102597.00
2023-05-19T06:07:14.186Z,102600.63
2023-05-19T06:09:40.844Z,102596.63
2023-05-19T06:12:09.061Z,102600.69
2023-05-19T06:14:41.013Z,102599.56
2023-05-19T06:17:36.601Z,102604.38
2023-05-19T06:20:08.607Z,102602.50
2023-05-19T06:22:35.264Z,102606.09
2023-05-19T06:25:03.735Z,102598.28
2023-05-19T06:27:31.744Z,102599.56
2023-05-19T06:30:00.500Z,102592.59
2023-05-19T06:32:30.324Z,102609.66
2023-05-19T06:35:00.241Z,102609.25
2023-05-19T06:37:26.831Z,102606.72
2023-05-19T06:39:55.383Z,102603.75
2023-05-19T06:42:22.789Z,102602.03
2023-05-19T06:44:57.035Z,102606.44
2023-05-19T06:47:24.055Z,102607.50
2023-05-19T06:49:55.504Z,102606.88
2023-05-19T06:52:25.586Z,102598.00
2023-05-19T06:54:52.977Z,102606.19
2023-05-19T06:57:19.545Z,102602.16
2023-05-19T06:59:46.697Z,102600.13
2023-05-19T07:02:14.160Z,102595.88
2023-05-19T07:04:41.052Z,102594.13
2023-05-19T07:07:08.028Z,102599.41
2023-05-19T07:09:35.515Z,102596.84
2023-05-19T07:12:03.146Z,102601.06
2023-05-19T07:14:30.309Z,102596.16
2023-05-19T07:16:56.894Z,102609.84
2023-05-19T07:19:24.346Z,102604.56
2023-05-19T07:21:53.418Z,102599.47
2023-05-19T07:24:21.433Z,102608.53
2023-05-19T07:26:48.161Z,102601.34
2023-05-19T07:29:14.729Z,102603.59
2023-05-19T07:31:41.387Z,102588.63
2023-05-19T07:34:08.734Z,102597.44
2023-05-19T07:36:35.941Z,102590.34
2023-05-19T07:39:02.591Z,102601.78
2023-05-19T07:41:29.151Z,102605.03
2023-05-19T07:43:55.892Z,102599.41
2023-05-19T07:46:22.523Z,102594.00
2023-05-19T07:48:49.135Z,102585.59
2023-05-19T07:51:16.160Z,102588.78
2023-05-19T07:53:42.704Z,102582.19
2023-05-19T07:56:09.281Z,102586.00
2023-05-19T07:58:35.880Z,102591.38
2023-05-19T08:01:02.429Z,102584.75
2023-05-19T08:03:30.592Z,102581.63
2023-05-19T08:05:57.398Z,102585.44
2023-05-19T08:08:24.148Z,102582.78
2023-05-19T08:10:50.733Z,102569.81
2023-05-19T08:13:17.286Z,102573.22
2023-05-19T08:15:44.056Z,102571.09
2023-05-19T08:18:10.848Z,102577.03
2023-05-19T08:20:37.547Z,102572.66
2023-05-19T08:23:04.167Z,102569.94
2023-05-19T08:25:30.716Z,102566.09
2023-05-19T08:27:57.265Z,102571.25
2023-05-19T08:30:24.231Z,102570.97
2023-05-19T08:32:51.165Z,102564.50
2023-05-19T08:35:17.810Z,102560.75
2023-05-19T08:37:44.397Z,102557.31
2023-05-19T08:40:17.484Z,102552.88
2023-05-19T08:42:45.960Z,102562.41
2023-05-19T08:45:13.171Z,102560.88
2023-05-19T08:47:46.299Z,102548.91
2023-05-19T08:50:17.612Z,102551.97
2023-05-19T08:52:53.729Z,102548.25
2023-05-19T08:55:34.529Z,102549.34
2023-05-19T08:58:03.447Z,102539.56
2023-05-19T09:00:30.674Z,102539.50
2023-05-19T09:03:06.009Z,102533.97
2023-05-19T09:05:38.762Z,102535.72
2023-05-19T09:08:05.906Z,102531.16
2023-05-19T09:10:32.451Z,102525.13
2023-05-19T09:12:59.030Z,102525.25
2023-05-19T09:15:28.022Z,102528.72
2023-05-19T09:18:09.298Z,102522.84
2023-05-19T09:20:43.671Z,102514.09
2023-05-19T09:23:15.021Z,102515.66
2023-05-19T09:25:53.913Z,102517.19
2023-05-19T09:28:36.246Z,102514.31
2023-05-19T09:31:08.226Z,102512.50
2023-05-19T09:33:40.348Z,102503.00
2023-05-19T09:36:08.715Z,102507.72
2023-05-19T09:38:36.461Z,102511.00
2023-05-19T09:41:05.807Z,102497.25
2023-05-19T09:43:33.882Z,102508.53
2023-05-19T09:46:03.962Z,102507.94
2023-05-19T09:48:30.765Z,102500.34
2023-05-19T09:50:58.143Z,102510.22
2023-05-19T09:53:25.416Z,102506.50
2023-05-19T09:55:57.546Z,102521.94
2023-05-19T09:58:24.785Z,102516.50
2023-05-19T10:00:52.538Z,102510.81
2023-05-19T10:03:19.713Z,102512.88
2023-05-19T10:05:47.510Z,102501.94
2023-05-19T10:08:17.692Z,102501.56
2023-05-19T10:10:48.420Z,102498.13
2023-05-19T10:13:16.407Z,102496.59
2023-05-19T10:15:57.497Z,102494.25
2023-05-19T10:18:26.603Z,102498.69
2023-05-19T10:20:54.302Z,102495.56
2023-05-19T10:23:21.057Z,102499.91
2023-05-19T10:25:49.217Z,102491.59
2023-05-19T10:28:21.270Z,102496.22
2023-05-19T10:30:50.813Z,102498.03
2023-05-19T10:33:19.991Z,102497.88
2023-05-19T10:36:11.826Z,102491.63
2023-05-19T10:39:05.032Z,102491.00
2023-05-19T10:42:02.051Z,102489.44
2023-05-19T10:44:45.026Z,102480.56
2023-05-19T10:47:12.347Z,102473.25
2023-05-19T10:49:39.694Z,102477.78
2023-05-19T10:52:23.377Z,102466.94
2023-05-19T10:54:51.360Z,102466.25
2023-05-19T10:57:19.805Z,102479.09
2023-05-19T10:59:47.045Z,102474.09
2023-05-19T11:02:41.066Z,102475.72
2023-05-19T11:05:09.557Z,102470.00
2023-05-19T11:07:36.433Z,102469.47
2023-05-19T11:10:07.568Z,102473.00
2023-05-19T11:12:44.691Z,102468.00
2023-05-19T11:15:15.571Z,102460.53
2023-05-19T11:17:46.113Z,102458.78
2023-05-19T11:20:22.678Z,102474.00
2023-05-19T11:23:06.236Z,102468.22
2023-05-19T11:25:50.812Z,102460.56
2023-05-19T11:28:20.012Z,102465.44
2023-05-19T11:30:51.862Z,102464.16
2023-05-19T11:33:20.372Z,102459.56
2023-05-19T11:35:49.373Z,102460.69
2023-05-19T11:38:18.445Z,102462.34
2023-05-19T11:40:45.236Z,102451.78
2023-05-19T11:43:11.815Z,102447.38
2023-05-19T11:45:38.672Z,102446.75
2023-05-19T11:48:06.274Z,102444.66
2023-05-19T11:50:33.285Z,102448.31
2023-05-19T11:53:01.290Z,102451.75
2023-05-19T11:55:28.581Z,102450.44
2023-05-19T11:58:02.809Z,102449.59
2023-05-19T12:00:37.553Z,102446.28
2023-05-19T12:03:04.744Z,102441.25
2023-05-19T12:05:34.501Z,102432.66
2023-05-19T12:08:03.121Z,102430.06
2023-05-19T12:10:31.729Z,102431.16
2023-05-19T12:12:59.746Z,102433.94
2023-05-19T12:15:26.522Z,102422.31
2023-05-19T12:18:01.027Z,102423.00
2023-05-19T12:20:31.865Z,102427.97
2023-05-19T12:23:00.140Z,102416.31
2023-05-19T12:25:27.381Z,102414.13
2023-05-19T12:27:58.404Z,102416.72
2023-05-19T12:30:28.716Z,102423.63
2023-05-19T12:32:58.661Z,102421.44
2023-05-19T12:35:36.475Z,102428.66
2023-05-19T12:38:04.747Z,102426.13
2023-05-19T12:40:31.914Z,102419.00
2023-05-19T12:43:01.546Z,102415.38
2023-05-19T12:45:28.826Z,102404.91
2023-05-19T12:47:56.109Z,102401.63
2023-05-19T12:50:30.185Z,102400.84
2023-05-19T12:52:58.386Z,102394.16
2023-05-19T12:55:24.934Z,102388.94
2023-05-19T12:57:57.833Z,102394.53
2023-05-19T13:00:27.751Z,102394.34
2023-05-19T13:03:01.768Z,102387.38
2023-05-19T13:05:30.241Z,102382.63
2023-05-19T13:07:58.479Z,102375.63
2023-05-19T13:10:27.653Z,102376.75
2023-05-19T13:12:58.930Z,102380.44
2023-05-19T13:15:28.017Z,102373.78
2023-05-19T13:17:55.056Z,102377.97
2023-05-19T13:20:22.083Z,102374.09
2023-05-19T13:22:49.156Z,102377.16
2023-05-19T13:25:16.396Z,102374.66
2023-05-19T13:27:45.799Z,102371.06
2023-05-19T13:30:12.830Z,102368.56
2023-05-19T13:32:39.516Z,102368.56
2023-05-19T13:35:06.771Z,102362.47
2023-05-19T13:37:33.572Z,102366.91
2023-05-19T13:40:00.362Z,102366.38
2023-05-19T13:42:26.957Z,102372.47
2023-05-19T13:44:56.983Z,102361.06
2023-05-19T13:47:24.201Z,102362.72
2023-05-19T13:49:51.710Z,102366.59
2023-05-19T13:52:19.608Z,102351.28
2023-05-19T13:54:46.562Z,102343.75
2023-05-19T13:57:13.276Z,102351.78
2023-05-19T13:59:52.957Z,102342.88
2023-05-19T14:02:26.717Z,102346.44
2023-05-19T14:04:53.514Z,102356.78
2023-05-19T14:07:20.096Z,102347.56
2023-05-19T14:09:46.872Z,102349.97
2023-05-19T14:12:13.699Z,102343.72
2023-05-19T14:14:40.485Z,102349.59
2023-05-19T14:17:07.106Z,102349.25
2023-05-19T14:19:33.694Z,102347.84
2023-05-19T14:22:00.336Z,102339.31
2023-05-19T14:24:26.932Z,102348.41
2023-05-19T14:26:53.779Z,102350.09
2023-05-19T14:29:20.376Z,102342.72
2023-05-19T14:31:47.232Z,102340.47
2023-05-19T14:34:17.705Z,102338.31
2023-05-19T14:36:44.648Z,102338.94
2023-05-19T14:39:11.867Z,102330.94
2023-05-19T14:41:38.553Z,102337.22
2023-05-19T14:44:05.788Z,102335.75
2023-05-19T14:46:32.361Z,102331.16
2023-05-19T14:48:58.961Z,102330.59
2023-05-19T14:51:25.641Z,102326.72
2023-05-19T14:53:52.244Z,102324.69
2023-05-19T14:56:18.790Z,102327.72
2023-05-19T14:58:45.358Z,102330.88
2023-05-19T15:01:11.971Z,102321.25
2023-05-19T15:03:38.601Z,102318.88
2023-05-19T15:06:11.714Z,102321.91
2023-05-19T15:08:39.222Z,102322.56
2023-05-19T15:11:05.847Z,102311.44
2023-05-19T15:13:32.427Z,102321.19
2023-05-19T15:16:08.226Z,102318.34
2023-05-19T15:18:42.042Z,102309.09
2023-05-19T15:21:08.591Z,102318.03
2023-05-19T15:23:35.125Z,102318.03
2023-05-19T15:26:01.734Z,102318.09
2023-05-19T15:28:28.298Z,102308.50
2023-05-19T15:30:55.893Z,102321.41
2023-05-19T15:33:22.558Z,102309.28
2023-05-19T15:35:51.630Z,102311.88
2023-05-19T15:38:19.370Z,102309.91
2023-05-19T15:40:46.654Z,102310.41
2023-05-19T15:43:13.452Z,102303.22
2023-05-19T15:45:40.066Z,102306.13
2023-05-19T15:48:07.019Z,102296.13
2023-05-19T15:50:33.855Z,102287.31
2023-05-19T15:53:00.624Z,102300.34
2023-05-19T15:55:27.159Z,102303.09
2023-05-19T15:57:53.702Z,102300.69
2023-05-19T16:00:20.429Z,102299.56
2023-05-19T16:02:47.059Z,102287.34
2023-05-19T16:05:14.275Z,102281.75
2023-05-19T16:07:42.028Z,102292.44
2023-05-19T16:10:09.173Z,102291.09
2023-05-19T16:12:36.609Z,102282.41
2023-05-19T16:15:03.783Z,102289.88
2023-05-19T16:17:30.655Z,102282.50
2023-05-19T16:19:57.285Z,102276.72
2023-05-19T16:22:24.867Z,102283.00
2023-05-19T16:24:52.286Z,102284.28
2023-05-19T16:27:19.188Z,102280.94
2023-05-19T16:29:45.919Z,102284.56
2023-05-19T16:32:12.927Z,102278.03
2023-05-19T16:34:39.788Z,102267.75
2023-05-19T16:37:06.403Z,102267.66
2023-05-19T16:39:35.919Z,102275.59
2023-05-19T16:42:03.098Z,102275.16
2023-05-19T16:44:29.825Z,102269.13
2023-05-19T16:46:56.352Z,102264.75
2023-05-19T16:49:22.894Z,102275.06
2023-05-19T16:51:49.696Z,102265.38
2023-05-19T16:54:16.312Z,102268.06
2023-05-19T16:56:42.997Z,102269.41
2023-05-19T16:59:09.756Z,102270.97
2023-05-19T17:01:36.364Z,102263.94
2023-05-19T17:04:02.965Z,102256.66
2023-05-19T17:06:29.638Z,102257.28
2023-05-19T17:08:56.200Z,102260.13
2023-05-19T17:11:22.889Z,102271.03
2023-05-19T17:13:49.424Z,102274.44
2023-05-19T17:16:16.072Z,102267.47
2023-05-19T17:18:43.600Z,102277.22
2023-05-19T17:21:10.588Z,102270.84
2023-05-19T17:23:37.822Z,102266.84
2023-05-19T17:26:04.580Z,102267.09
2023-05-19T17:28:31.165Z,102265.56
2023-05-19T17:30:57.832Z,102269.69
2023-05-19T17:33:24.624Z,102267.53
2023-05-19T17:35:51.389Z,102268.88
2023-05-19T17:38:17.972Z,102265.47
2023-05-19T17:40:44.594Z,102266.81
2023-05-19T17:43:11.296Z,102274.38
2023-05-19T17:45:37.888Z,102266.59
2023-05-19T17:48:04.941Z,102270.03
2023-05-19T17:50:31.869Z,102270.13
2023-05-19T17:52:58.886Z,102267.31
2023-05-19T17:55:29.695Z,102281.03
2023-05-19T17:57:56.879Z,102270.13
2023-05-19T18:00:25.043Z,102269.69
2023-05-19T18:02:52.433Z,102262.34
2023-05-19T18:05:19.556Z,102263.38
2023-05-19T18:07:46.376Z,102261.22
2023-05-19T18:10:15.524Z,102261.38
2023-05-19T18:12:42.195Z,102270.63
2023-05-19T18:15:09.061Z,102263.41
2023-05-19T18:17:35.708Z,102271.16
2023-05-19T18:20:02.475Z,102264.06
2023-05-19T18:22:29.082Z,102269.63
2023-05-19T18:24:57.566Z,102272.31
2023-05-19T18:27:24.101Z,102274.50
2023-05-19T18:29:50.672Z,102276.59
2023-05-19T18:32:17.742Z,102277.50
2023-05-19T18:34:44.443Z,102290.69
2023-05-19T18:37:11.028Z,102274.88
2023-05-19T18:39:37.554Z,102281.50
2023-05-19T18:42:04.307Z,102275.09
2023-05-19T18:44:31.011Z,102283.50
2023-05-19T18:46:57.622Z,102283.28
2023-05-19T18:49:25.049Z,102288.69
2023-05-19T18:51:51.849Z,102292.44
2023-05-19T18:54:19.430Z,102291.09
2023-05-19T18:56:46.026Z,102290.88
2023-05-19T18:59:12.561Z,102296.53
2023-05-19T19:01:39.305Z,102290.97
2023-05-19T19:04:06.236Z,102294.94
2023-05-19T19:06:32.861Z,102295.81
2023-05-19T19:08:59.391Z,102304.47
2023-05-19T19:11:26.383Z,102297.25
2023-05-19T19:13:55.447Z,102293.13
2023-05-19T19:16:22.546Z,102309.06
2023-05-19T19:18:49.300Z,102308.25
2023-05-19T19:21:15.982Z,102309.66
2023-05-19T19:23:42.498Z,102318.88
2023-05-19T19:26:09.543Z,102318.63
2023-05-19T19:28:36.445Z,102325.66
2023-05-19T19:31:03.168Z,102326.25
2023-05-19T19:33:29.764Z,102330.44
2023-05-19T19:35:56.449Z,102321.50
2023-05-19T19:38:23.126Z,102328.78
2023-05-19T19:40:52.453Z,102327.19
2023-05-19T19:43:19.452Z,102333.59
2023-05-19T19:45:46.065Z,102340.84
2023-05-19T19:48:12.725Z,102335.00
2023-05-19T19:50:39.361Z,102345.63
2023-05-19T19:53:06.017Z,102345.66
2023-05-19T19:55:32.796Z,102351.50
2023-05-19T19:57:59.348Z,102346.00
2023-05-19T20:00:25.923Z,102353.50
2023-05-19T20:03:04.336Z,102357.44
2023-05-19T20:05:31.967Z,102363.56
2023-05-19T20:07:58.586Z,102359.38
2023-05-19T20:10:25.178Z,102353.56
2023-05-19T20:12:52.193Z,102355.50
2023-05-19T20:15:18.781Z,102354.41
2023-05-19T20:17:45.865Z,102356.91
2023-05-19T20:20:13.013Z,102362.47
2023-05-19T20:22:39.619Z,102365.78
2023-05-19T20:25:06.572Z,102363.03
2023-05-19T20:27:33.238Z,102366.91
2023-05-19T20:29:59.909Z,102367.44
2023-05-19T20:32:26.570Z,102364.13
2023-05-19T20:34:53.225Z,102358.84
2023-05-19T20:37:21.524Z,102357.44
2023-05-19T20:39:48.099Z,102363.53
2023-05-19T20:42:14.765Z,102355.75
2023-05-19T20:44:42.669Z,102360.50
2023-05-19T20:47:09.465Z,102362.97
2023-05-19T20:49:36.067Z,102367.94
2023-05-19T20:52:02.695Z,102366.81
2023-05-19T20:54:29.341Z,102366.81
2023-05-19T20:56:55.964Z,102366.28
2023-05-19T20:59:22.558Z,102371.28
2023-05-19T21:01:49.184Z,102371.28
2023-05-19T21:04:16.003Z,102365.94
2023-05-19T21:06:42.635Z,102362.31
2023-05-19T21:09:10.472Z,102363.16
2023-05-19T21:11:37.140Z,102366.72
2023-05-19T21:14:04.293Z,102358.34
2023-05-19T21:16:31.935Z,102365.81
2023-05-19T21:18:58.692Z,102373.00
2023-05-19T21:21:26.166Z,102376.63
2023-05-19T21:23:52.870Z,102377.47
2023-05-19T21:26:19.457Z,102378.56
2023-05-19T21:28:46.186Z,102375.75
2023-05-19T21:31:12.796Z,102376.50
2023-05-19T21:33:39.387Z,102369.88
2023-05-19T21:36:06.047Z,102378.75
2023-05-19T21:38:32.604Z,102374.06
2023-05-19T21:40:59.188Z,102375.38
2023-05-19T21:43:25.922Z,102380.34
2023-05-19T21:45:52.493Z,102379.22
2023-05-19T21:48:19.158Z,102383.63
2023-05-19T21:50:45.737Z,102379.16
2023-05-19T21:53:12.284Z,102370.78
2023-05-19T21:55:39.334Z,102366.28
2023-05-19T21:58:06.145Z,102379.09
2023-05-19T22:00:33.041Z,102375.66
2023-05-19T22:02:59.966Z,102372.28
2023-05-19T22:05:28.898Z,102371.16
2023-05-19T22:07:55.798Z,102372.53
2023-05-19T22:10:22.425Z,102373.91
2023-05-19T22:12:49.006Z,102367.72
2023-05-19T22:15:15.866Z,102379.03
2023-05-19T22:17:42.610Z,102380.41
2023-05-19T22:20:09.586Z,102380.13
2023-05-19T22:22:36.367Z,102392.25
2023-05-19T22:25:03.698Z,102393.00
2023-05-19T22:27:30.692Z,102390.69
2023-05-19T22:29:57.297Z,102396.25
2023-05-19T22:32:24.065Z,102386.41
2023-05-19T22:34:50.882Z,102387.25
2023-05-19T22:37:17.494Z,102379.78
2023-05-19T22:39:44.210Z,102381.31
2023-05-19T22:42:11.051Z,102384.00
2023-05-19T22:44:37.641Z,102381.59
2023-05-19T22:47:04.279Z,102384.81
2023-05-19T22:49:30.991Z,102383.06
2023-05-19T22:51:57.500Z,102385.72
2023-05-19T22:54:24.098Z,102382.88
2023-05-19T22:56:50.755Z,102374.88
2023-05-19T22:59:18.049Z,102378.72
2023-05-19T23:01:46.506Z,102380.06
2023-05-19T23:04:13.835Z,102371.38
2023-05-19T23:06:41.224Z,102374.19
2023-05-19T23:09:07.976Z,102366.53
2023-05-19T23:11:35.848Z,102386.50
2023-05-19T23:14:02.547Z,102370.47
2023-05-19T23:16:29.224Z,102369.91
2023-05-19T23:18:55.876Z,102375.53
2023-05-19T23:21:22.684Z,102370.69
2023-05-19T23:23:49.892Z,102375.53
2023-05-19T23:26:16.791Z,102377.53
2023-05-19T23:28:43.468Z,102380.28
2023-05-19T23:31:10.513Z,102383.72
2023-05-19T23:33:37.050Z,102383.03
2023-05-19T23:36:07.764Z,102379.75
2023-05-19T23:38:35.102Z,102374.91
2023-05-19T23:41:02.254Z,102377.44
2023-05-19T23:43:28.966Z,102376.25
2023-05-19T23:45:55.551Z,102378.81
2023-05-19T23:48:22.081Z,102373.41
2023-05-19T23:50:48.886Z,102381.59
2023-05-19T23:53:15.530Z,102377.59
2023-05-19T23:55:42.202Z,102383.13
2023-05-19T23:58:08.915Z,102380.84
